createdAt,value
2022-12-08T00:02:25.330Z,-2.06
2022-12-08T00:08:44.255Z,-1.92
2022-12-08T00:11:13.263Z,-1.91
2022-12-08T00:16:32.228Z,-2.02
2022-12-08T00:19:32.409Z,-2.06
2022-12-08T00:22:45.107Z,-2.06
2022-12-08T00:25:14.063Z,-2.02
2022-12-08T00:27:54.448Z,-2.01
2022-12-08T00:30:25.337Z,-2.00
2022-12-08T00:32:59.909Z,-2.03
2022-12-08T00:38:09.450Z,-2.02
2022-12-08T00:40:36.070Z,-2.02
2022-12-08T00:43:02.712Z,-2.04
2022-12-08T00:45:29.405Z,-1.99
2022-12-08T00:47:56.134Z,-1.98
2022-12-08T00:50:22.765Z,-2.00
2022-12-08T00:52:49.365Z,-2.00
2022-12-08T00:55:16.070Z,-1.88
2022-12-08T00:57:42.694Z,-1.92
2022-12-08T01:00:09.670Z,-1.95
2022-12-08T01:02:36.282Z,-1.88
2022-12-08T01:05:02.944Z,-1.88
2022-12-08T01:07:29.519Z,-1.89
2022-12-08T01:09:57.793Z,-1.86
2022-12-08T01:12:24.494Z,-1.81
2022-12-08T01:14:51.092Z,-1.76
2022-12-08T01:17:17.665Z,-1.68
2022-12-08T01:19:44.346Z,-1.61
2022-12-08T01:22:10.945Z,-1.61
2022-12-08T01:24:37.577Z,-1.56
2022-12-08T01:27:04.254Z,-1.52
2022-12-08T01:29:30.941Z,-1.43
2022-12-08T01:31:57.570Z,-1.41
2022-12-08T01:34:24.218Z,-1.42
2022-12-08T01:36:50.881Z,-1.33
2022-12-08T01:39:18.828Z,-1.29
2022-12-08T01:41:47.551Z,-1.31
2022-12-08T01:44:14.147Z,-1.30
2022-12-08T01:46:42.817Z,-1.26
2022-12-08T01:49:13.987Z,-1.11
2022-12-08T01:51:59.986Z,-1.08
2022-12-08T01:54:29.641Z,-1.06
2022-12-08T01:57:03.534Z,-1.07
2022-12-08T01:59:30.646Z,-0.93
2022-12-08T02:01:57.747Z,-1.01
2022-12-08T02:04:27.725Z,-1.04
2022-12-08T02:06:54.824Z,-1.07
2022-12-08T02:09:22.342Z,-1.02
2022-12-08T02:11:50.651Z,-1.01
2022-12-08T02:14:17.308Z,-0.95
2022-12-08T02:17:14.519Z,-0.98
2022-12-08T02:20:06.625Z,-0.89
2022-12-08T02:22:50.564Z,-0.95
2022-12-08T02:25:26.288Z,-0.95
2022-12-08T02:28:03.960Z,-0.86
2022-12-08T02:30:44.744Z,-0.76
2022-12-08T02:33:43.928Z,-0.82
2022-12-08T02:36:14.225Z,-0.81
2022-12-08T02:39:19.172Z,-0.77
2022-12-08T02:41:52.249Z,-0.72
2022-12-08T02:44:28.242Z,-0.72
2022-12-08T02:46:59.067Z,-0.76
2022-12-08T02:49:35.678Z,-0.80
2022-12-08T02:52:07.384Z,-0.78
2022-12-08T02:54:35.018Z,-0.77
2022-12-08T02:57:32.078Z,-0.77
2022-12-08T03:00:05.284Z,-0.80
2022-12-08T03:03:01.916Z,-0.80
2022-12-08T03:05:53.362Z,-0.81
2022-12-08T03:08:28.978Z,-0.79
2022-12-08T03:11:01.713Z,-0.80
2022-12-08T03:13:56.237Z,-0.75
2022-12-08T03:16:25.893Z,-0.76
2022-12-08T03:19:17.961Z,-0.79
2022-12-08T03:21:47.239Z,-0.81
2022-12-08T03:24:17.972Z,-0.80
2022-12-08T03:26:54.801Z,-0.77
2022-12-08T03:29:21.841Z,-0.79
2022-12-08T03:31:57.662Z,-0.80
2022-12-08T03:34:26.679Z,-0.80
2022-12-08T03:36:53.854Z,-0.77
2022-12-08T03:39:21.849Z,-0.72
2022-12-08T03:41:48.748Z,-0.74
2022-12-08T03:44:15.787Z,-0.77
2022-12-08T03:46:42.565Z,-0.76
2022-12-08T03:49:09.184Z,-0.64
2022-12-08T03:51:35.817Z,-0.59
2022-12-08T03:54:02.416Z,-0.66
2022-12-08T03:56:36.404Z,-0.64
2022-12-08T03:59:03.511Z,-0.72
2022-12-08T04:01:30.307Z,-0.72
2022-12-08T04:03:56.981Z,-0.63
2022-12-08T04:06:23.664Z,-0.64
2022-12-08T04:08:50.767Z,-0.63
2022-12-08T04:11:18.363Z,-0.73
2022-12-08T04:13:45.180Z,-0.74
2022-12-08T04:16:17.000Z,-0.69
2022-12-08T04:18:43.903Z,-0.50
2022-12-08T04:21:10.534Z,-0.63
2022-12-08T04:23:37.199Z,-0.72
2022-12-08T04:26:04.582Z,-0.71
2022-12-08T04:28:31.434Z,-0.70
2022-12-08T04:30:58.285Z,-0.69
2022-12-08T04:33:24.927Z,-0.70
2022-12-08T04:35:51.565Z,-0.63
2022-12-08T04:38:18.368Z,-0.70
2022-12-08T04:40:45.188Z,-0.65
2022-12-08T04:43:11.779Z,-0.67
2022-12-08T04:45:42.782Z,-0.67
2022-12-08T04:48:09.806Z,-0.53
2022-12-08T04:50:39.942Z,-0.47
2022-12-08T04:53:06.552Z,-0.62
2022-12-08T04:55:33.200Z,-0.65
2022-12-08T04:57:59.851Z,-0.66
2022-12-08T05:00:26.515Z,-0.39
2022-12-08T05:02:53.251Z,-0.54
2022-12-08T05:05:19.997Z,-0.58
2022-12-08T05:07:46.644Z,-0.61
2022-12-08T05:10:13.252Z,-0.62
2022-12-08T05:12:39.851Z,-0.59
2022-12-08T05:15:07.089Z,-0.59
2022-12-08T05:17:33.720Z,-0.58
2022-12-08T05:20:00.337Z,-0.49
2022-12-08T05:22:26.932Z,-0.49
2022-12-08T05:24:53.570Z,-0.55
2022-12-08T05:27:20.144Z,-0.53
2022-12-08T05:29:48.147Z,-0.52
2022-12-08T05:32:14.748Z,-0.52
2022-12-08T05:34:41.428Z,-0.40
2022-12-08T05:37:08.044Z,-0.42
2022-12-08T05:39:34.634Z,-0.47
2022-12-08T05:42:01.254Z,-0.50
2022-12-08T05:44:27.984Z,-0.51
2022-12-08T05:46:54.570Z,-0.47
2022-12-08T05:49:21.280Z,-0.31
2022-12-08T05:51:47.997Z,-0.35
2022-12-08T05:54:14.600Z,-0.32
2022-12-08T05:56:41.236Z,-0.41
2022-12-08T05:59:08.132Z,-0.33
2022-12-08T06:01:46.888Z,-0.26
2022-12-08T06:04:13.521Z,-0.22
2022-12-08T06:06:40.137Z,-0.31
2022-12-08T06:09:06.775Z,-0.30
2022-12-08T06:11:33.832Z,-0.22
2022-12-08T06:14:00.461Z,-0.24
2022-12-08T06:16:27.998Z,-0.20
2022-12-08T06:18:55.171Z,-0.26
2022-12-08T06:21:21.781Z,-0.29
2022-12-08T06:23:49.964Z,-0.24
2022-12-08T06:26:16.878Z,-0.28
2022-12-08T06:28:43.650Z,-0.14
2022-12-08T06:31:13.633Z,-0.21
2022-12-08T06:33:40.554Z,-0.15
2022-12-08T06:36:07.533Z,-0.16
2022-12-08T06:38:37.099Z,-0.16
2022-12-08T06:41:06.442Z,-0.17
2022-12-08T06:43:33.327Z,-0.13
2022-12-08T06:46:01.066Z,-0.15
2022-12-08T06:48:27.749Z,-0.16
2022-12-08T06:50:54.348Z,-0.13
2022-12-08T06:53:20.968Z,-0.09
2022-12-08T06:55:59.123Z,0.08
2022-12-08T06:58:26.464Z,-0.01
2022-12-08T07:00:53.678Z,-0.05
2022-12-08T07:03:20.599Z,-0.05
2022-12-08T07:05:47.242Z,0.10
2022-12-08T07:08:14.134Z,0.08
2022-12-08T07:10:40.900Z,-0.02
2022-12-08T07:13:07.524Z,-0.04
2022-12-08T07:15:34.138Z,0.02
2022-12-08T07:18:00.928Z,-0.01
2022-12-08T07:20:28.053Z,0.04
2022-12-08T07:22:54.744Z,0.07
2022-12-08T07:25:21.423Z,0.02
2022-12-08T07:27:50.128Z,0.01
2022-12-08T07:30:17.012Z,-0.02
2022-12-08T07:32:43.811Z,0.03
2022-12-08T07:35:10.568Z,0.12
2022-12-08T07:37:37.615Z,0.13
2022-12-08T07:40:06.370Z,0.11
2022-12-08T07:42:33.253Z,0.14
2022-12-08T07:45:00.665Z,0.19
2022-12-08T07:47:27.432Z,0.19
2022-12-08T07:49:54.090Z,0.22
2022-12-08T07:52:20.712Z,0.24
2022-12-08T07:54:47.630Z,0.18
2022-12-08T07:57:15.407Z,0.19
2022-12-08T07:59:41.998Z,0.26
2022-12-08T08:02:24.680Z,0.35
2022-12-08T08:04:52.402Z,0.41
2022-12-08T08:07:19.103Z,0.35
2022-12-08T08:09:45.929Z,0.39
2022-12-08T08:15:03.518Z,0.47
2022-12-08T08:17:30.674Z,0.46
2022-12-08T08:19:57.544Z,0.53
2022-12-08T08:22:25.248Z,0.64
2022-12-08T08:24:52.111Z,0.63
2022-12-08T08:27:18.980Z,0.74
2022-12-08T08:29:45.655Z,0.77
2022-12-08T08:32:12.343Z,0.72
2022-12-08T08:34:39.021Z,0.63
2022-12-08T08:37:05.879Z,0.59
2022-12-08T08:39:32.543Z,0.68
2022-12-08T08:41:59.234Z,0.68
2022-12-08T08:44:25.809Z,0.78
2022-12-08T08:46:52.503Z,0.77
2022-12-08T08:49:19.173Z,0.82
2022-12-08T08:51:46.034Z,0.89
2022-12-08T08:54:12.670Z,0.97
2022-12-08T08:56:39.273Z,0.98
2022-12-08T08:59:05.918Z,0.99
2022-12-08T09:01:32.620Z,1.00
2022-12-08T09:03:59.365Z,1.06
2022-12-08T09:06:28.254Z,1.05
2022-12-08T09:08:55.056Z,1.02
2022-12-08T09:11:23.484Z,1.08
2022-12-08T09:13:51.647Z,0.99
2022-12-08T09:16:21.141Z,0.99
2022-12-08T09:18:49.442Z,1.11
2022-12-08T09:21:22.422Z,1.12
2022-12-08T09:23:50.106Z,1.20
2022-12-08T09:26:16.946Z,1.23
2022-12-08T09:28:46.571Z,1.36
2022-12-08T09:31:14.378Z,1.33
2022-12-08T09:33:41.156Z,1.34
2022-12-08T09:36:08.143Z,1.28
2022-12-08T09:38:34.761Z,1.23
2022-12-08T09:41:03.485Z,1.31
2022-12-08T09:43:51.887Z,1.24
2022-12-08T09:46:19.405Z,1.30
2022-12-08T09:48:57.609Z,1.32
2022-12-08T09:51:25.583Z,1.33
2022-12-08T09:53:56.748Z,1.25
2022-12-08T09:56:27.675Z,1.27
2022-12-08T09:59:03.385Z,1.28
2022-12-08T10:01:33.702Z,1.35
2022-12-08T10:04:01.136Z,1.29
2022-12-08T10:06:39.432Z,1.22
2022-12-08T10:09:24.667Z,1.20
2022-12-08T10:12:00.981Z,1.31
2022-12-08T10:14:47.329Z,1.27
2022-12-08T10:17:21.435Z,1.31
2022-12-08T10:19:49.600Z,1.29
2022-12-08T10:22:21.719Z,1.30
2022-12-08T10:24:54.586Z,1.33
2022-12-08T10:27:21.338Z,1.31
2022-12-08T10:29:47.972Z,1.25
2022-12-08T10:32:23.280Z,1.23
2022-12-08T10:35:20.375Z,1.33
2022-12-08T10:38:00.762Z,1.33
2022-12-08T10:40:29.597Z,1.35
2022-12-08T10:42:58.139Z,1.42
2022-12-08T10:45:30.128Z,1.42
2022-12-08T10:48:03.558Z,1.39
2022-12-08T10:50:44.478Z,1.35
2022-12-08T10:53:36.348Z,1.33
2022-12-08T10:56:02.975Z,1.34
2022-12-08T10:58:40.885Z,1.26
2022-12-08T11:01:24.528Z,1.26
2022-12-08T11:03:58.066Z,1.19
2022-12-08T11:06:35.110Z,1.27
2022-12-08T11:09:05.084Z,1.30
2022-12-08T11:11:39.513Z,1.21
2022-12-08T11:14:09.184Z,1.22
2022-12-08T11:16:35.918Z,1.30
2022-12-08T11:19:06.689Z,1.29
2022-12-08T11:21:37.436Z,1.41
2022-12-08T11:24:16.371Z,1.48
2022-12-08T11:27:04.260Z,1.48
2022-12-08T11:29:32.969Z,1.42
2022-12-08T11:32:09.170Z,1.52
2022-12-08T11:34:45.992Z,1.52
2022-12-08T11:37:18.939Z,1.59
2022-12-08T11:39:49.517Z,1.51
2022-12-08T11:42:19.793Z,1.58
2022-12-08T11:44:59.682Z,1.59
2022-12-08T11:47:39.198Z,1.54
2022-12-08T11:50:20.026Z,1.49
2022-12-08T11:52:57.068Z,1.53
2022-12-08T11:55:37.107Z,1.53
2022-12-08T11:58:21.359Z,1.55
2022-12-08T12:00:49.269Z,1.57
2022-12-08T12:03:34.954Z,1.54
2022-12-08T12:09:15.670Z,1.50
2022-12-08T12:12:14.368Z,1.48
2022-12-08T12:15:15.915Z,1.45
2022-12-08T12:17:50.867Z,1.47
2022-12-08T12:20:39.274Z,1.48
2022-12-08T12:23:35.464Z,1.42
2022-12-08T12:26:06.247Z,1.50
2022-12-08T12:28:42.530Z,1.54
2022-12-08T12:31:12.502Z,1.50
2022-12-08T12:33:39.306Z,1.57
2022-12-08T12:36:08.096Z,1.61
2022-12-08T12:38:54.906Z,1.77
2022-12-08T12:41:28.090Z,1.71
2022-12-08T12:44:14.949Z,1.72
2022-12-08T12:46:50.653Z,1.84
2022-12-08T12:49:39.365Z,1.75
2022-12-08T12:52:15.191Z,1.71
2022-12-08T12:55:05.668Z,1.72
2022-12-08T12:57:40.005Z,1.67
2022-12-08T13:00:08.028Z,1.64
2022-12-08T13:02:48.676Z,1.68
2022-12-08T13:05:22.178Z,1.72
2022-12-08T13:08:04.113Z,1.69
2022-12-08T13:10:33.472Z,1.61
2022-12-08T13:13:06.622Z,1.52
2022-12-08T13:15:41.807Z,1.51
2022-12-08T13:18:25.733Z,1.59
2022-12-08T13:20:57.615Z,1.56
2022-12-08T13:23:49.856Z,1.46
2022-12-08T13:26:24.953Z,1.56
2022-12-08T13:29:03.924Z,1.65
2022-12-08T13:31:51.241Z,1.55
2022-12-08T13:34:36.970Z,1.54
2022-12-08T13:37:13.514Z,1.52
2022-12-08T13:39:40.125Z,1.51
2022-12-08T13:42:07.932Z,1.61
2022-12-08T13:47:34.760Z,1.52
2022-12-08T13:58:38.280Z,1.51
2022-12-08T14:01:09.275Z,1.47
2022-12-08T14:06:49.200Z,1.53
2022-12-08T14:09:17.911Z,1.39
2022-12-08T14:11:52.585Z,1.31
2022-12-08T14:15:00.714Z,1.17
2022-12-08T14:17:18.151Z,1.05
2022-12-08T14:19:53.694Z,1.01
2022-12-08T14:22:20.288Z,0.94
2022-12-08T14:24:50.213Z,0.92
2022-12-08T14:27:19.845Z,0.86
2022-12-08T14:29:52.927Z,0.80
2022-12-08T14:32:23.977Z,0.79
2022-12-08T14:35:25.250Z,0.77
2022-12-08T14:37:55.757Z,0.74
2022-12-08T14:40:25.566Z,0.73
2022-12-08T14:43:16.712Z,0.68
2022-12-08T14:45:43.191Z,0.67
2022-12-08T14:48:36.248Z,0.71
2022-12-08T14:51:06.003Z,0.66
2022-12-08T14:53:39.848Z,0.62
2022-12-08T14:56:20.664Z,0.64
2022-12-08T14:58:49.522Z,0.64
2022-12-08T15:01:21.988Z,0.63
2022-12-08T15:03:51.144Z,0.61
2022-12-08T15:06:20.543Z,0.59
2022-12-08T15:08:58.700Z,0.58
2022-12-08T15:11:31.612Z,0.57
2022-12-08T15:13:58.197Z,0.59
2022-12-08T15:16:28.017Z,0.48
2022-12-08T15:19:16.309Z,0.43
2022-12-08T15:21:44.598Z,0.46
2022-12-08T15:24:12.762Z,0.46
2022-12-08T15:26:47.262Z,0.35
2022-12-08T15:29:22.852Z,0.26
2022-12-08T15:31:50.339Z,0.21
2022-12-08T15:34:17.037Z,0.21
2022-12-08T15:36:45.729Z,0.19
2022-12-08T15:39:34.749Z,0.32
2022-12-08T15:42:02.364Z,0.23
2022-12-08T15:44:29.401Z,0.22
2022-12-08T15:46:56.283Z,0.19
2022-12-08T15:49:24.111Z,0.19
2022-12-08T15:51:55.689Z,0.21
2022-12-08T15:54:27.348Z,0.22
2022-12-08T15:57:18.724Z,0.25
2022-12-08T15:59:43.204Z,0.22
2022-12-08T16:02:14.540Z,0.22
2022-12-08T16:07:30.247Z,0.20
2022-12-08T16:09:57.221Z,0.19
2022-12-08T16:18:24.146Z,0.15
2022-12-08T16:21:12.478Z,0.13
2022-12-08T16:23:45.497Z,0.16
2022-12-08T16:26:28.365Z,0.21
2022-12-08T16:29:02.252Z,0.19
2022-12-08T16:31:29.022Z,0.24
2022-12-08T16:33:55.840Z,0.23
2022-12-08T16:36:22.398Z,0.20
2022-12-08T16:38:49.021Z,0.23
2022-12-08T16:41:35.222Z,0.17
2022-12-08T16:44:03.007Z,0.15
2022-12-08T16:46:29.738Z,0.16
2022-12-08T16:48:59.366Z,0.31
2022-12-08T16:51:27.381Z,0.24
2022-12-08T16:53:55.446Z,0.22
2022-12-08T16:56:26.198Z,0.24
2022-12-08T16:58:57.233Z,0.25
2022-12-08T17:01:23.935Z,0.34
2022-12-08T17:04:07.509Z,0.48
2022-12-08T17:06:37.093Z,0.49
2022-12-08T17:09:03.720Z,0.51
2022-12-08T17:11:37.491Z,0.56
2022-12-08T17:14:05.921Z,0.59
2022-12-08T17:16:32.573Z,0.57
2022-12-08T17:18:59.307Z,0.62
2022-12-08T17:21:25.969Z,0.55
2022-12-08T17:23:52.737Z,0.64
2022-12-08T17:26:19.440Z,0.64
2022-12-08T17:29:02.015Z,0.73
2022-12-08T17:31:30.880Z,0.70
2022-12-08T17:33:59.847Z,0.61
2022-12-08T17:36:26.457Z,0.53
2022-12-08T17:38:53.136Z,0.67
2022-12-08T17:41:19.711Z,0.43
2022-12-08T17:43:46.346Z,0.48
2022-12-08T17:46:19.749Z,0.36
2022-12-08T17:48:46.673Z,0.24
2022-12-08T17:51:13.509Z,0.16
2022-12-08T17:53:40.768Z,0.17
2022-12-08T17:56:14.712Z,0.16
2022-12-08T17:58:41.381Z,0.12
2022-12-08T18:01:17.156Z,0.09
2022-12-08T18:04:01.949Z,0.08
2022-12-08T18:06:31.365Z,-0.01
2022-12-08T18:08:59.901Z,-0.05
2022-12-08T18:11:27.688Z,0.03
2022-12-08T18:13:55.424Z,-0.11
2022-12-08T18:16:24.562Z,-0.13
2022-12-08T18:18:51.424Z,-0.11
2022-12-08T18:21:23.265Z,-0.08
2022-12-08T18:23:50.611Z,-0.18
2022-12-08T18:26:17.380Z,-0.21
2022-12-08T18:28:44.142Z,-0.18
2022-12-08T18:31:17.241Z,-0.18
2022-12-08T18:33:45.249Z,-0.20
2022-12-08T18:36:14.030Z,-0.25
2022-12-08T18:38:40.965Z,-0.26
2022-12-08T18:41:09.053Z,-0.18
2022-12-08T18:43:36.438Z,-0.24
2022-12-08T18:46:04.775Z,-0.26
2022-12-08T18:48:31.406Z,-0.23
2022-12-08T18:50:58.018Z,-0.23
2022-12-08T18:53:24.697Z,-0.20
2022-12-08T18:55:51.354Z,-0.17
2022-12-08T18:58:18.646Z,-0.16
2022-12-08T19:00:45.247Z,-0.17
2022-12-08T19:03:11.872Z,-0.14
2022-12-08T19:05:38.753Z,-0.13
2022-12-08T19:08:06.392Z,-0.14
2022-12-08T19:10:35.541Z,-0.14
2022-12-08T19:13:02.187Z,-0.13
2022-12-08T19:15:28.934Z,-0.11
2022-12-08T19:17:55.653Z,-0.10
2022-12-08T19:20:22.275Z,-0.10
2022-12-08T19:22:48.832Z,-0.08
2022-12-08T19:25:15.563Z,-0.04
2022-12-08T19:27:42.226Z,0.04
2022-12-08T19:30:10.386Z,0.02
2022-12-08T19:32:37.034Z,-0.02
2022-12-08T19:35:07.359Z,-0.02
2022-12-08T19:37:34.942Z,0.01
2022-12-08T19:40:20.267Z,0.02
2022-12-08T19:43:05.598Z,0.02
2022-12-08T19:45:35.358Z,0.00
2022-12-08T19:48:01.999Z,-0.01
2022-12-08T19:50:37.771Z,-0.01
2022-12-08T19:53:13.013Z,0.03
2022-12-08T19:55:39.903Z,0.03
2022-12-08T19:58:07.426Z,0.00
2022-12-08T20:00:35.298Z,0.03
2022-12-08T20:03:02.679Z,0.06
2022-12-08T20:05:31.188Z,0.06
2022-12-08T20:07:58.358Z,0.10
2022-12-08T20:10:28.268Z,0.09
2022-12-08T20:13:13.999Z,0.05
2022-12-08T20:15:40.849Z,0.06
2022-12-08T20:18:07.663Z,0.05
2022-12-08T20:20:34.408Z,0.07
2022-12-08T20:23:01.239Z,0.06
2022-12-08T20:25:27.905Z,0.05
2022-12-08T20:27:54.553Z,0.06
2022-12-08T20:30:21.177Z,0.06
2022-12-08T20:32:47.746Z,0.06
2022-12-08T20:35:15.585Z,0.08
2022-12-08T20:37:42.663Z,0.09
2022-12-08T20:40:09.671Z,0.11
2022-12-08T20:42:36.232Z,0.15
2022-12-08T20:45:06.305Z,0.10
2022-12-08T20:47:33.351Z,0.16
2022-12-08T20:49:59.953Z,0.11
2022-12-08T20:52:26.670Z,0.13
2022-12-08T20:54:53.325Z,0.20
2022-12-08T20:57:20.177Z,0.14
2022-12-08T20:59:46.911Z,0.16
2022-12-08T21:02:13.735Z,0.14
2022-12-08T21:04:40.471Z,0.16
2022-12-08T21:07:09.004Z,0.13
2022-12-08T21:09:36.634Z,0.10
2022-12-08T21:12:03.441Z,0.09
2022-12-08T21:14:30.023Z,0.12
2022-12-08T21:16:56.799Z,0.07
2022-12-08T21:19:24.112Z,0.07
2022-12-08T21:21:50.996Z,0.06
2022-12-08T21:24:18.760Z,0.04
2022-12-08T21:26:45.569Z,0.03
2022-12-08T21:29:12.735Z,0.04
2022-12-08T21:31:39.722Z,0.10
2022-12-08T21:34:06.451Z,0.02
2022-12-08T21:36:33.162Z,0.01
2022-12-08T21:39:02.772Z,-0.04
2022-12-08T21:41:48.311Z,-0.05
2022-12-08T21:44:18.705Z,-0.04
2022-12-08T21:46:45.902Z,-0.08
2022-12-08T21:49:12.939Z,-0.07
2022-12-08T21:51:42.214Z,-0.06
2022-12-08T21:54:18.680Z,-0.05
2022-12-08T21:56:46.693Z,-0.06
2022-12-08T21:59:13.556Z,-0.02
2022-12-08T22:01:40.467Z,-0.04
2022-12-08T22:04:07.570Z,-0.05
2022-12-08T22:06:34.642Z,-0.03
2022-12-08T22:09:01.342Z,0.02
2022-12-08T22:11:28.288Z,-0.07
2022-12-08T22:13:58.000Z,-0.04
2022-12-08T22:16:24.669Z,-0.03
2022-12-08T22:18:53.868Z,0.08
2022-12-08T22:21:20.725Z,0.03
2022-12-08T22:23:47.499Z,0.01
2022-12-08T22:26:14.397Z,0.07
2022-12-08T22:28:42.690Z,0.04
2022-12-08T22:31:10.676Z,0.00
2022-12-08T22:33:38.928Z,0.00
2022-12-08T22:36:10.642Z,0.00
2022-12-08T22:38:37.978Z,0.01
2022-12-08T22:41:05.866Z,0.01
2022-12-08T22:43:33.531Z,-0.02
2022-12-08T22:46:00.289Z,-0.03
2022-12-08T22:48:27.064Z,-0.06
2022-12-08T22:51:00.499Z,-0.11
2022-12-08T22:53:27.420Z,-0.20
2022-12-08T22:55:54.624Z,-0.24
2022-12-08T22:58:21.862Z,-0.31
2022-12-08T23:00:48.758Z,-0.49
2022-12-08T23:03:15.667Z,-0.65
2022-12-08T23:05:42.834Z,-0.67
2022-12-08T23:08:13.944Z,-0.61
2022-12-08T23:10:41.182Z,-0.55
2022-12-08T23:13:08.379Z,-0.72
2022-12-08T23:15:35.181Z,-0.79
2022-12-08T23:18:02.099Z,-0.85
2022-12-08T23:20:28.823Z,-0.95
2022-12-08T23:22:56.302Z,-1.00
2022-12-08T23:25:23.069Z,-1.05
2022-12-08T23:27:49.905Z,-1.04
2022-12-08T23:30:16.794Z,-1.01
2022-12-08T23:32:43.604Z,-1.10
2022-12-08T23:35:10.994Z,-1.15
2022-12-08T23:37:37.894Z,-1.19
2022-12-08T23:40:06.455Z,-1.20
2022-12-08T23:42:33.514Z,-1.24
2022-12-08T23:45:00.350Z,-1.21
2022-12-08T23:47:27.370Z,-1.20
2022-12-08T23:49:54.283Z,-1.22
2022-12-08T23:52:21.070Z,-1.25
2022-12-08T23:54:50.300Z,-1.29
2022-12-08T23:57:17.126Z,-1.33
2022-12-08T23:59:44.185Z,-1.30
